sensor_id;sensor_type;location;lat;lon;timestamp;pressure;altitude;pressure_sealevel;temperature;humidity
28448;BME280;15675;52.870;-1.416;2023-12-28T00:00:33;98961.66;;;8.28;100.00
28448;BME280;15675;52.870;-1.416;2023-12-28T00:02:58;98986.09;;;8.68;100.00
28448;BME280;15675;52.870;-1.416;2023-12-28T00:05:24;99003.56;;;8.52;100.00
28448;BME280;15675;52.870;-1.416;2023-12-28T00:07:49;99031.41;;;8.92;100.00
28448;BME280;15675;52.870;-1.416;2023-12-28T00:10:22;99034.50;;;8.60;100.00
28448;BME280;15675;52.870;-1.416;2023-12-28T00:12:48;99022.56;;;8.51;100.00
28448;BME280;15675;52.870;-1.416;2023-12-28T00:15:13;99013.66;;;8.68;100.00
28448;BME280;15675;52.870;-1.416;2023-12-28T00:17:39;99025.88;;;8.59;100.00
28448;BME280;15675;52.870;-1.416;2023-12-28T00:20:05;99018.06;;;8.62;100.00
28448;BME280;15675;52.870;-1.416;2023-12-28T00:22:31;99020.56;;;8.69;100.00
28448;BME280;15675;52.870;-1.416;2023-12-28T00:24:56;99011.31;;;8.52;100.00
28448;BME280;15675;52.870;-1.416;2023-12-28T00:27:22;99015.25;;;8.78;100.00
28448;BME280;15675;52.870;-1.416;2023-12-28T00:29:47;99024.50;;;8.93;100.00
28448;BME280;15675;52.870;-1.416;2023-12-28T00:32:13;99026.31;;;8.86;100.00
28448;BME280;15675;52.870;-1.416;2023-12-28T00:34:38;99023.44;;;9.03;100.00
28448;BME280;15675;52.870;-1.416;2023-12-28T00:37:05;99022.47;;;9.10;100.00
28448;BME280;15675;52.870;-1.416;2023-12-28T00:39:30;99025.00;;;9.13;100.00
28448;BME280;15675;52.870;-1.416;2023-12-28T00:41:56;99004.94;;;9.26;100.00
28448;BME280;15675;52.870;-1.416;2023-12-28T00:44:21;99008.81;;;9.50;100.00
28448;BME280;15675;52.870;-1.416;2023-12-28T00:46:47;99004.25;;;9.62;100.00
28448;BME280;15675;52.870;-1.416;2023-12-28T00:49:12;98973.06;;;9.68;100.00
28448;BME280;15675;52.870;-1.416;2023-12-28T00:51:37;98975.59;;;9.71;100.00
28448;BME280;15675;52.870;-1.416;2023-12-28T00:54:03;99000.25;;;9.91;100.00
28448;BME280;15675;52.870;-1.416;2023-12-28T00:56:29;98976.16;;;9.85;100.00
28448;BME280;15675;52.870;-1.416;2023-12-28T00:58:54;99011.50;;;9.90;100.00
28448;BME280;15675;52.870;-1.416;2023-12-28T01:01:20;99000.97;;;9.97;99.55
28448;BME280;15675;52.870;-1.416;2023-12-28T01:03:45;99006.44;;;10.24;98.67
28448;BME280;15675;52.870;-1.416;2023-12-28T01:06:11;99032.25;;;10.30;98.82
28448;BME280;15675;52.870;-1.416;2023-12-28T01:08:36;99009.09;;;9.79;100.00
28448;BME280;15675;52.870;-1.416;2023-12-28T01:11:02;98995.91;;;9.47;100.00
28448;BME280;15675;52.870;-1.416;2023-12-28T01:13:28;99005.31;;;9.05;100.00
28448;BME280;15675;52.870;-1.416;2023-12-28T01:15:54;99028.25;;;8.72;100.00
28448;BME280;15675;52.870;-1.416;2023-12-28T01:18:20;99024.69;;;8.80;100.00
28448;BME280;15675;52.870;-1.416;2023-12-28T01:20:46;99021.28;;;8.78;100.00
28448;BME280;15675;52.870;-1.416;2023-12-28T01:23:11;99008.97;;;8.93;100.00
28448;BME280;15675;52.870;-1.416;2023-12-28T01:25:37;98997.38;;;9.15;100.00
28448;BME280;15675;52.870;-1.416;2023-12-28T01:28:03;99010.88;;;9.31;100.00
28448;BME280;15675;52.870;-1.416;2023-12-28T01:30:29;99028.16;;;9.31;100.00
28448;BME280;15675;52.870;-1.416;2023-12-28T01:32:55;99027.91;;;9.43;100.00
28448;BME280;15675;52.870;-1.416;2023-12-28T01:35:20;99040.53;;;9.62;100.00
28448;BME280;15675;52.870;-1.416;2023-12-28T01:37:46;99026.78;;;9.58;100.00
28448;BME280;15675;52.870;-1.416;2023-12-28T01:40:11;99012.09;;;9.59;100.00
28448;BME280;15675;52.870;-1.416;2023-12-28T01:42:37;98999.78;;;9.70;100.00
28448;BME280;15675;52.870;-1.416;2023-12-28T01:45:03;98996.13;;;9.80;100.00
28448;BME280;15675;52.870;-1.416;2023-12-28T01:47:30;98994.38;;;9.82;100.00
28448;BME280;15675;52.870;-1.416;2023-12-28T01:49:56;98974.41;;;9.86;100.00
28448;BME280;15675;52.870;-1.416;2023-12-28T01:52:22;98959.69;;;9.88;100.00
28448;BME280;15675;52.870;-1.416;2023-12-28T01:54:49;98976.22;;;9.82;100.00
28448;BME280;15675;52.870;-1.416;2023-12-28T01:57:15;98968.00;;;10.04;100.00
28448;BME280;15675;52.870;-1.416;2023-12-28T01:59:41;98972.00;;;10.19;100.00
28448;BME280;15675;52.870;-1.416;2023-12-28T02:02:07;98980.59;;;10.21;100.00
28448;BME280;15675;52.870;-1.416;2023-12-28T02:04:33;98996.06;;;10.24;100.00
28448;BME280;15675;52.870;-1.416;2023-12-28T02:06:59;98977.03;;;10.25;100.00
28448;BME280;15675;52.870;-1.416;2023-12-28T02:09:25;98987.19;;;10.38;100.00
28448;BME280;15675;52.870;-1.416;2023-12-28T02:11:52;98996.94;;;10.25;100.00
28448;BME280;15675;52.870;-1.416;2023-12-28T02:14:18;98980.84;;;10.49;99.89
28448;BME280;15675;52.870;-1.416;2023-12-28T02:16:54;98979.28;;;10.42;100.00
28448;BME280;15675;52.870;-1.416;2023-12-28T02:19:45;98992.34;;;10.38;100.00
28448;BME280;15675;52.870;-1.416;2023-12-28T02:22:14;98988.94;;;10.35;100.00
28448;BME280;15675;52.870;-1.416;2023-12-28T02:25:04;98991.50;;;10.37;100.00
28448;BME280;15675;52.870;-1.416;2023-12-28T02:27:31;99006.22;;;10.36;100.00
28448;BME280;15675;52.870;-1.416;2023-12-28T02:29:57;98998.56;;;10.29;100.00
28448;BME280;15675;52.870;-1.416;2023-12-28T02:32:33;99004.41;;;10.39;99.93
28448;BME280;15675;52.870;-1.416;2023-12-28T02:35:06;98996.59;;;10.40;98.90
28448;BME280;15675;52.870;-1.416;2023-12-28T02:37:34;99009.88;;;10.26;97.91
28448;BME280;15675;52.870;-1.416;2023-12-28T02:40:00;98956.97;;;10.35;95.77
28448;BME280;15675;52.870;-1.416;2023-12-28T02:42:26;98998.88;;;10.54;94.79
28448;BME280;15675;52.870;-1.416;2023-12-28T02:44:52;99010.22;;;10.50;94.53
28448;BME280;15675;52.870;-1.416;2023-12-28T02:47:17;99024.03;;;10.52;95.51
28448;BME280;15675;52.870;-1.416;2023-12-28T02:49:43;98979.28;;;10.42;96.53
28448;BME280;15675;52.870;-1.416;2023-12-28T02:52:08;99007.28;;;10.26;97.72
28448;BME280;15675;52.870;-1.416;2023-12-28T02:54:34;99057.97;;;10.41;98.81
28448;BME280;15675;52.870;-1.416;2023-12-28T02:56:59;99061.59;;;10.32;99.88
28448;BME280;15675;52.870;-1.416;2023-12-28T02:59:25;99102.06;;;10.41;100.00
28448;BME280;15675;52.870;-1.416;2023-12-28T03:01:50;99109.41;;;10.17;100.00
28448;BME280;15675;52.870;-1.416;2023-12-28T03:04:15;99120.16;;;9.99;100.00
28448;BME280;15675;52.870;-1.416;2023-12-28T03:06:41;99138.16;;;10.07;100.00
28448;BME280;15675;52.870;-1.416;2023-12-28T03:09:07;99126.34;;;9.93;100.00
28448;BME280;15675;52.870;-1.416;2023-12-28T03:11:32;99156.63;;;9.90;100.00
28448;BME280;15675;52.870;-1.416;2023-12-28T03:13:58;99174.66;;;9.96;100.00
28448;BME280;15675;52.870;-1.416;2023-12-28T03:16:23;99179.84;;;9.96;100.00
28448;BME280;15675;52.870;-1.416;2023-12-28T03:18:49;99166.59;;;9.63;100.00
28448;BME280;15675;52.870;-1.416;2023-12-28T03:21:14;99152.25;;;9.92;100.00
28448;BME280;15675;52.870;-1.416;2023-12-28T03:23:40;99148.56;;;9.57;100.00
28448;BME280;15675;52.870;-1.416;2023-12-28T03:26:05;99165.25;;;9.90;100.00
28448;BME280;15675;52.870;-1.416;2023-12-28T03:28:31;99175.53;;;9.96;100.00
28448;BME280;15675;52.870;-1.416;2023-12-28T03:30:56;99165.53;;;9.76;100.00
28448;BME280;15675;52.870;-1.416;2023-12-28T03:33:23;99178.19;;;9.90;100.00
28448;BME280;15675;52.870;-1.416;2023-12-28T03:35:49;99180.03;;;9.85;100.00
28448;BME280;15675;52.870;-1.416;2023-12-28T03:38:14;99169.03;;;9.72;100.00
28448;BME280;15675;52.870;-1.416;2023-12-28T03:40:40;99172.47;;;9.73;100.00
28448;BME280;15675;52.870;-1.416;2023-12-28T03:43:05;99184.16;;;9.97;100.00
28448;BME280;15675;52.870;-1.416;2023-12-28T03:45:31;99142.69;;;9.95;100.00
28448;BME280;15675;52.870;-1.416;2023-12-28T03:47:56;99173.47;;;10.14;100.00
28448;BME280;15675;52.870;-1.416;2023-12-28T03:50:22;99192.56;;;10.10;100.00
28448;BME280;15675;52.870;-1.416;2023-12-28T03:52:47;99189.44;;;10.39;100.00
28448;BME280;15675;52.870;-1.416;2023-12-28T03:55:13;99206.09;;;10.24;100.00
28448;BME280;15675;52.870;-1.416;2023-12-28T03:57:38;99203.75;;;10.12;99.01
28448;BME280;15675;52.870;-1.416;2023-12-28T04:00:04;99209.41;;;10.34;97.61
28448;BME280;15675;52.870;-1.416;2023-12-28T04:02:30;99209.47;;;10.29;96.39
28448;BME280;15675;52.870;-1.416;2023-12-28T04:04:57;99188.69;;;10.31;94.92
28448;BME280;15675;52.870;-1.416;2023-12-28T04:07:24;99212.84;;;10.33;93.14
28448;BME280;15675;52.870;-1.416;2023-12-28T04:09:49;99211.72;;;10.49;91.31
28448;BME280;15675;52.870;-1.416;2023-12-28T04:12:15;99224.94;;;10.35;89.65
28448;BME280;15675;52.870;-1.416;2023-12-28T04:14:40;99224.97;;;10.32;88.08
28448;BME280;15675;52.870;-1.416;2023-12-28T04:17:06;99235.91;;;10.50;87.77
28448;BME280;15675;52.870;-1.416;2023-12-28T04:19:31;99233.59;;;10.33;87.12
28448;BME280;15675;52.870;-1.416;2023-12-28T04:21:57;99259.91;;;10.61;87.40
28448;BME280;15675;52.870;-1.416;2023-12-28T04:24:22;99253.72;;;10.68;86.04
28448;BME280;15675;52.870;-1.416;2023-12-28T04:26:48;99242.97;;;10.42;86.15
28448;BME280;15675;52.870;-1.416;2023-12-28T04:29:13;99265.72;;;10.74;85.74
28448;BME280;15675;52.870;-1.416;2023-12-28T04:31:40;99262.66;;;10.53;85.69
28448;BME280;15675;52.870;-1.416;2023-12-28T04:34:07;99259.13;;;10.58;84.97
28448;BME280;15675;52.870;-1.416;2023-12-28T04:36:32;99272.28;;;10.47;85.22
28448;BME280;15675;52.870;-1.416;2023-12-28T04:38:58;99266.88;;;10.59;84.43
28448;BME280;15675;52.870;-1.416;2023-12-28T04:41:23;99272.84;;;10.63;84.08
28448;BME280;15675;52.870;-1.416;2023-12-28T04:43:48;99276.25;;;10.66;83.77
28448;BME280;15675;52.870;-1.416;2023-12-28T04:46:14;99282.25;;;10.68;83.50
28448;BME280;15675;52.870;-1.416;2023-12-28T04:48:39;99283.91;;;10.73;83.36
28448;BME280;15675;52.870;-1.416;2023-12-28T04:51:05;99297.00;;;10.66;83.69
28448;BME280;15675;52.870;-1.416;2023-12-28T04:53:30;99295.13;;;10.75;82.91
28448;BME280;15675;52.870;-1.416;2023-12-28T04:55:56;99312.63;;;10.65;84.30
28448;BME280;15675;52.870;-1.416;2023-12-28T04:58:21;99305.78;;;10.61;84.18
28448;BME280;15675;52.870;-1.416;2023-12-28T05:00:47;99324.06;;;10.55;84.24
28448;BME280;15675;52.870;-1.416;2023-12-28T05:03:12;99330.22;;;10.46;84.93
28448;BME280;15675;52.870;-1.416;2023-12-28T05:05:38;99334.13;;;10.70;84.77
28448;BME280;15675;52.870;-1.416;2023-12-28T05:08:04;99340.03;;;10.78;83.72
28448;BME280;15675;52.870;-1.416;2023-12-28T05:10:29;99337.50;;;10.75;83.76
28448;BME280;15675;52.870;-1.416;2023-12-28T05:12:56;99326.50;;;11.08;83.13
28448;BME280;15675;52.870;-1.416;2023-12-28T05:15:21;99329.16;;;11.03;82.44
28448;BME280;15675;52.870;-1.416;2023-12-28T05:17:47;99330.41;;;10.85;82.53
28448;BME280;15675;52.870;-1.416;2023-12-28T05:20:12;99321.72;;;10.86;82.04
28448;BME280;15675;52.870;-1.416;2023-12-28T05:22:38;99301.97;;;10.77;81.11
28448;BME280;15675;52.870;-1.416;2023-12-28T05:25:04;99312.31;;;10.80;79.84
28448;BME280;15675;52.870;-1.416;2023-12-28T05:27:30;99306.00;;;10.47;80.04
28448;BME280;15675;52.870;-1.416;2023-12-28T05:29:55;99313.59;;;10.59;80.42
28448;BME280;15675;52.870;-1.416;2023-12-28T05:32:21;99318.50;;;10.75;80.13
28448;BME280;15675;52.870;-1.416;2023-12-28T05:34:47;99329.81;;;10.70;80.23
28448;BME280;15675;52.870;-1.416;2023-12-28T05:37:14;99323.78;;;10.68;80.52
28448;BME280;15675;52.870;-1.416;2023-12-28T05:39:40;99333.50;;;11.02;79.99
28448;BME280;15675;52.870;-1.416;2023-12-28T05:42:05;99331.50;;;10.73;80.28
28448;BME280;15675;52.870;-1.416;2023-12-28T05:44:31;99334.22;;;10.65;81.87
28448;BME280;15675;52.870;-1.416;2023-12-28T05:46:56;99328.38;;;10.54;85.51
28448;BME280;15675;52.870;-1.416;2023-12-28T05:49:22;99345.38;;;10.70;87.18
28448;BME280;15675;52.870;-1.416;2023-12-28T05:51:48;99355.16;;;10.56;89.63
28448;BME280;15675;52.870;-1.416;2023-12-28T05:54:13;99364.50;;;10.65;91.45
28448;BME280;15675;52.870;-1.416;2023-12-28T05:56:39;99362.13;;;10.52;93.70
28448;BME280;15675;52.870;-1.416;2023-12-28T05:59:04;99364.66;;;10.56;95.17
28448;BME280;15675;52.870;-1.416;2023-12-28T06:01:30;99366.53;;;10.49;95.96
28448;BME280;15675;52.870;-1.416;2023-12-28T06:03:55;99376.53;;;10.70;96.07
28448;BME280;15675;52.870;-1.416;2023-12-28T06:06:21;99367.16;;;10.60;94.96
28448;BME280;15675;52.870;-1.416;2023-12-28T06:08:46;99367.06;;;10.66;94.58
28448;BME280;15675;52.870;-1.416;2023-12-28T06:11:12;99362.22;;;10.48;93.93
28448;BME280;15675;52.870;-1.416;2023-12-28T06:13:38;99355.81;;;10.66;93.08
28448;BME280;15675;52.870;-1.416;2023-12-28T06:16:04;99351.50;;;10.66;90.92
28448;BME280;15675;52.870;-1.416;2023-12-28T06:18:29;99378.38;;;10.62;90.94
28448;BME280;15675;52.870;-1.416;2023-12-28T06:20:55;99366.03;;;10.75;90.54
28448;BME280;15675;52.870;-1.416;2023-12-28T06:23:21;99368.91;;;10.60;91.05
28448;BME280;15675;52.870;-1.416;2023-12-28T06:25:46;99374.91;;;10.63;90.01
28448;BME280;15675;52.870;-1.416;2023-12-28T06:28:12;99381.75;;;10.66;91.02
28448;BME280;15675;52.870;-1.416;2023-12-28T06:30:37;99383.81;;;10.48;91.27
28448;BME280;15675;52.870;-1.416;2023-12-28T06:33:05;99402.84;;;10.49;92.26
28448;BME280;15675;52.870;-1.416;2023-12-28T06:35:31;99389.63;;;10.61;93.19
28448;BME280;15675;52.870;-1.416;2023-12-28T06:37:56;99396.63;;;10.59;94.04
28448;BME280;15675;52.870;-1.416;2023-12-28T06:40:21;99399.53;;;10.41;95.71
28448;BME280;15675;52.870;-1.416;2023-12-28T06:42:47;99417.72;;;10.36;97.92
28448;BME280;15675;52.870;-1.416;2023-12-28T06:45:12;99401.19;;;10.45;97.95
28448;BME280;15675;52.870;-1.416;2023-12-28T06:47:38;99396.03;;;10.42;98.98
28448;BME280;15675;52.870;-1.416;2023-12-28T06:50:04;99403.72;;;10.48;99.41
28448;BME280;15675;52.870;-1.416;2023-12-28T06:52:30;99408.66;;;10.63;98.04
28448;BME280;15675;52.870;-1.416;2023-12-28T06:54:57;99411.47;;;10.49;98.70
28448;BME280;15675;52.870;-1.416;2023-12-28T06:57:22;99415.09;;;10.39;98.88
28448;BME280;15675;52.870;-1.416;2023-12-28T06:59:48;99422.00;;;10.40;99.39
28448;BME280;15675;52.870;-1.416;2023-12-28T07:02:13;99421.69;;;10.59;98.72
28448;BME280;15675;52.870;-1.416;2023-12-28T07:04:39;99417.13;;;10.71;98.48
28448;BME280;15675;52.870;-1.416;2023-12-28T07:07:04;99408.94;;;10.46;99.78
28448;BME280;15675;52.870;-1.416;2023-12-28T07:09:30;99413.16;;;10.52;100.00
28448;BME280;15675;52.870;-1.416;2023-12-28T07:11:55;99412.97;;;10.63;100.00
28448;BME280;15675;52.870;-1.416;2023-12-28T07:14:21;99427.84;;;10.51;100.00
28448;BME280;15675;52.870;-1.416;2023-12-28T07:16:46;99416.56;;;10.56;100.00
28448;BME280;15675;52.870;-1.416;2023-12-28T07:19:12;99413.47;;;10.32;100.00
28448;BME280;15675;52.870;-1.416;2023-12-28T07:21:37;99416.69;;;10.48;100.00
28448;BME280;15675;52.870;-1.416;2023-12-28T07:24:03;99415.81;;;10.49;100.00
28448;BME280;15675;52.870;-1.416;2023-12-28T07:26:28;99419.97;;;10.59;100.00
28448;BME280;15675;52.870;-1.416;2023-12-28T07:28:54;99407.31;;;10.39;100.00
28448;BME280;15675;52.870;-1.416;2023-12-28T07:31:27;99410.59;;;10.50;100.00
28448;BME280;15675;52.870;-1.416;2023-12-28T07:33:53;99413.34;;;10.41;100.00
28448;BME280;15675;52.870;-1.416;2023-12-28T07:36:20;99405.31;;;10.55;100.00
28448;BME280;15675;52.870;-1.416;2023-12-28T07:38:45;99413.06;;;10.58;100.00
28448;BME280;15675;52.870;-1.416;2023-12-28T07:41:10;99428.16;;;10.31;100.00
28448;BME280;15675;52.870;-1.416;2023-12-28T07:43:36;99415.97;;;10.38;100.00
28448;BME280;15675;52.870;-1.416;2023-12-28T07:46:02;99425.47;;;10.41;100.00
28448;BME280;15675;52.870;-1.416;2023-12-28T07:48:28;99440.16;;;10.39;100.00
28448;BME280;15675;52.870;-1.416;2023-12-28T07:50:56;99439.13;;;10.52;100.00
28448;BME280;15675;52.870;-1.416;2023-12-28T07:53:22;99428.78;;;10.47;100.00
28448;BME280;15675;52.870;-1.416;2023-12-28T07:55:47;99437.44;;;10.48;100.00
28448;BME280;15675;52.870;-1.416;2023-12-28T07:58:13;99433.72;;;10.63;100.00
28448;BME280;15675;52.870;-1.416;2023-12-28T08:00:38;99456.38;;;10.53;100.00
28448;BME280;15675;52.870;-1.416;2023-12-28T08:03:04;99439.63;;;10.73;99.84
28448;BME280;15675;52.870;-1.416;2023-12-28T08:05:30;99464.19;;;10.50;99.82
28448;BME280;15675;52.870;-1.416;2023-12-28T08:07:55;99452.03;;;10.55;99.29
28448;BME280;15675;52.870;-1.416;2023-12-28T08:10:20;99457.31;;;10.47;98.93
28448;BME280;15675;52.870;-1.416;2023-12-28T08:12:46;99463.16;;;10.63;98.70
28448;BME280;15675;52.870;-1.416;2023-12-28T08:15:12;99470.44;;;10.38;98.56
28448;BME280;15675;52.870;-1.416;2023-12-28T08:17:38;99473.28;;;10.77;98.55
28448;BME280;15675;52.870;-1.416;2023-12-28T08:20:05;99479.13;;;10.92;97.04
28448;BME280;15675;52.870;-1.416;2023-12-28T08:22:32;99497.28;;;10.90;96.79
28448;BME280;15675;52.870;-1.416;2023-12-28T08:24:57;99483.03;;;10.63;98.06
28448;BME280;15675;52.870;-1.416;2023-12-28T08:27:23;99493.06;;;10.86;98.74
28448;BME280;15675;52.870;-1.416;2023-12-28T08:29:48;99492.06;;;10.93;100.00
28448;BME280;15675;52.870;-1.416;2023-12-28T08:32:14;99503.75;;;10.05;100.00
28448;BME280;15675;52.870;-1.416;2023-12-28T08:34:40;99533.28;;;9.90;100.00
28448;BME280;15675;52.870;-1.416;2023-12-28T08:37:05;99524.66;;;9.90;100.00
28448;BME280;15675;52.870;-1.416;2023-12-28T08:39:31;99542.94;;;9.79;100.00
28448;BME280;15675;52.870;-1.416;2023-12-28T08:41:56;99540.44;;;9.71;100.00
28448;BME280;15675;52.870;-1.416;2023-12-28T08:44:22;99527.66;;;9.54;100.00
28448;BME280;15675;52.870;-1.416;2023-12-28T08:46:47;99515.66;;;9.47;100.00
28448;BME280;15675;52.870;-1.416;2023-12-28T08:49:13;99513.06;;;9.48;100.00
28448;BME280;15675;52.870;-1.416;2023-12-28T08:51:41;99511.38;;;9.43;100.00
28448;BME280;15675;52.870;-1.416;2023-12-28T08:54:06;99530.28;;;9.51;100.00
28448;BME280;15675;52.870;-1.416;2023-12-28T08:56:33;99521.50;;;9.64;100.00
28448;BME280;15675;52.870;-1.416;2023-12-28T08:58:58;99526.59;;;9.74;100.00
28448;BME280;15675;52.870;-1.416;2023-12-28T09:01:24;99537.03;;;9.69;100.00
28448;BME280;15675;52.870;-1.416;2023-12-28T09:03:52;99532.75;;;9.62;100.00
28448;BME280;15675;52.870;-1.416;2023-12-28T09:06:19;99537.97;;;9.59;100.00
28448;BME280;15675;52.870;-1.416;2023-12-28T09:08:46;99543.03;;;9.71;100.00
28448;BME280;15675;52.870;-1.416;2023-12-28T09:11:13;99537.91;;;9.66;100.00
28448;BME280;15675;52.870;-1.416;2023-12-28T09:13:40;99525.00;;;9.60;100.00
28448;BME280;15675;52.870;-1.416;2023-12-28T09:16:07;99518.88;;;9.67;100.00
28448;BME280;15675;52.870;-1.416;2023-12-28T09:18:33;99514.59;;;9.66;100.00
28448;BME280;15675;52.870;-1.416;2023-12-28T09:20:59;99503.63;;;9.41;100.00
28448;BME280;15675;52.870;-1.416;2023-12-28T09:23:24;99511.09;;;9.71;100.00
28448;BME280;15675;52.870;-1.416;2023-12-28T09:25:50;99522.31;;;9.71;100.00
28448;BME280;15675;52.870;-1.416;2023-12-28T09:28:15;99521.25;;;9.86;100.00
28448;BME280;15675;52.870;-1.416;2023-12-28T09:30:41;99519.41;;;9.94;100.00
28448;BME280;15675;52.870;-1.416;2023-12-28T09:33:06;99508.50;;;9.71;100.00
28448;BME280;15675;52.870;-1.416;2023-12-28T09:35:32;99506.63;;;9.83;100.00
28448;BME280;15675;52.870;-1.416;2023-12-28T09:37:58;99518.72;;;9.81;100.00
28448;BME280;15675;52.870;-1.416;2023-12-28T09:40:24;99509.16;;;9.87;100.00
28448;BME280;15675;52.870;-1.416;2023-12-28T09:43:00;99504.81;;;9.87;100.00
28448;BME280;15675;52.870;-1.416;2023-12-28T09:45:27;99496.28;;;9.82;100.00
28448;BME280;15675;52.870;-1.416;2023-12-28T09:47:53;99502.16;;;9.92;100.00
28448;BME280;15675;52.870;-1.416;2023-12-28T09:50:18;99502.19;;;9.90;100.00
28448;BME280;15675;52.870;-1.416;2023-12-28T09:52:45;99486.66;;;9.89;100.00
28448;BME280;15675;52.870;-1.416;2023-12-28T09:55:10;99490.16;;;9.88;100.00
28448;BME280;15675;52.870;-1.416;2023-12-28T09:57:36;99493.44;;;9.99;100.00
28448;BME280;15675;52.870;-1.416;2023-12-28T10:00:03;99464.28;;;9.81;100.00
28448;BME280;15675;52.870;-1.416;2023-12-28T10:02:30;99497.63;;;10.09;100.00
28448;BME280;15675;52.870;-1.416;2023-12-28T10:04:55;99511.16;;;10.31;100.00
28448;BME280;15675;52.870;-1.416;2023-12-28T10:07:21;99492.06;;;10.37;100.00
28448;BME280;15675;52.870;-1.416;2023-12-28T10:09:46;99487.84;;;10.28;100.00
28448;BME280;15675;52.870;-1.416;2023-12-28T10:12:12;99500.69;;;10.41;100.00
28448;BME280;15675;52.870;-1.416;2023-12-28T10:14:37;99500.78;;;10.30;100.00
28448;BME280;15675;52.870;-1.416;2023-12-28T10:17:03;99509.13;;;10.53;100.00
28448;BME280;15675;52.870;-1.416;2023-12-28T10:19:29;99504.06;;;10.44;100.00
28448;BME280;15675;52.870;-1.416;2023-12-28T10:21:54;99504.97;;;10.43;100.00
28448;BME280;15675;52.870;-1.416;2023-12-28T10:24:20;99510.78;;;10.59;100.00
28448;BME280;15675;52.870;-1.416;2023-12-28T10:26:46;99511.81;;;10.49;100.00
28448;BME280;15675;52.870;-1.416;2023-12-28T10:29:12;99510.63;;;10.68;100.00
28448;BME280;15675;52.870;-1.416;2023-12-28T10:31:41;99494.56;;;10.45;100.00
28448;BME280;15675;52.870;-1.416;2023-12-28T10:34:07;99496.16;;;10.53;100.00
28448;BME280;15675;52.870;-1.416;2023-12-28T10:36:33;99479.81;;;10.47;100.00
28448;BME280;15675;52.870;-1.416;2023-12-28T10:39:01;99478.34;;;10.30;100.00
28448;BME280;15675;52.870;-1.416;2023-12-28T10:41:30;99477.13;;;10.53;100.00
28448;BME280;15675;52.870;-1.416;2023-12-28T10:44:05;99480.56;;;10.55;100.00
28448;BME280;15675;52.870;-1.416;2023-12-28T10:46:32;99472.91;;;10.49;100.00
28448;BME280;15675;52.870;-1.416;2023-12-28T10:49:12;99445.81;;;10.65;100.00
28448;BME280;15675;52.870;-1.416;2023-12-28T10:51:41;99453.03;;;10.46;100.00
28448;BME280;15675;52.870;-1.416;2023-12-28T10:54:37;99461.38;;;10.65;100.00
28448;BME280;15675;52.870;-1.416;2023-12-28T10:57:17;99466.66;;;10.61;100.00
28448;BME280;15675;52.870;-1.416;2023-12-28T10:59:55;99472.06;;;10.45;100.00
28448;BME280;15675;52.870;-1.416;2023-12-28T11:02:28;99454.47;;;10.63;100.00
28448;BME280;15675;52.870;-1.416;2023-12-28T11:04:55;99430.22;;;10.65;100.00
28448;BME280;15675;52.870;-1.416;2023-12-28T11:07:21;99451.34;;;10.44;100.00
28448;BME280;15675;52.870;-1.416;2023-12-28T11:09:48;99426.56;;;10.23;100.00
28448;BME280;15675;52.870;-1.416;2023-12-28T11:12:16;99424.38;;;10.52;100.00
28448;BME280;15675;52.870;-1.416;2023-12-28T11:14:45;99414.88;;;10.55;100.00
28448;BME280;15675;52.870;-1.416;2023-12-28T11:17:14;99418.91;;;10.69;100.00
28448;BME280;15675;52.870;-1.416;2023-12-28T11:19:41;99412.75;;;10.75;100.00
28448;BME280;15675;52.870;-1.416;2023-12-28T11:22:08;99405.16;;;10.64;100.00
28448;BME280;15675;52.870;-1.416;2023-12-28T11:24:34;99394.44;;;10.83;100.00
28448;BME280;15675;52.870;-1.416;2023-12-28T11:27:02;99385.84;;;10.81;100.00
28448;BME280;15675;52.870;-1.416;2023-12-28T11:29:30;99380.34;;;10.98;100.00
28448;BME280;15675;52.870;-1.416;2023-12-28T11:31:59;99381.91;;;10.58;100.00
28448;BME280;15675;52.870;-1.416;2023-12-28T11:34:30;99367.88;;;10.68;100.00
28448;BME280;15675;52.870;-1.416;2023-12-28T11:36:59;99363.88;;;10.97;100.00
28448;BME280;15675;52.870;-1.416;2023-12-28T11:39:32;99356.38;;;11.27;100.00
28448;BME280;15675;52.870;-1.416;2023-12-28T11:42:02;99360.94;;;11.16;100.00
28448;BME280;15675;52.870;-1.416;2023-12-28T11:44:29;99327.19;;;10.72;100.00
28448;BME280;15675;52.870;-1.416;2023-12-28T11:46:56;99331.78;;;11.01;100.00
28448;BME280;15675;52.870;-1.416;2023-12-28T11:49:25;99327.56;;;10.96;100.00
28448;BME280;15675;52.870;-1.416;2023-12-28T11:51:58;99315.13;;;11.13;100.00
28448;BME280;15675;52.870;-1.416;2023-12-28T11:54:25;99292.16;;;10.93;100.00
28448;BME280;15675;52.870;-1.416;2023-12-28T11:56:52;99301.38;;;11.08;100.00
28448;BME280;15675;52.870;-1.416;2023-12-28T11:59:21;99279.13;;;10.96;100.00
28448;BME280;15675;52.870;-1.416;2023-12-28T12:01:53;99278.13;;;11.02;100.00
28448;BME280;15675;52.870;-1.416;2023-12-28T12:04:19;99269.63;;;10.95;100.00
28448;BME280;15675;52.870;-1.416;2023-12-28T12:06:46;99266.09;;;10.98;100.00
28448;BME280;15675;52.870;-1.416;2023-12-28T12:09:16;99265.50;;;11.26;100.00
28448;BME280;15675;52.870;-1.416;2023-12-28T12:11:43;99260.88;;;10.99;100.00
28448;BME280;15675;52.870;-1.416;2023-12-28T12:14:09;99271.06;;;11.09;100.00
28448;BME280;15675;52.870;-1.416;2023-12-28T12:16:36;99253.50;;;10.79;100.00
28448;BME280;15675;52.870;-1.416;2023-12-28T12:19:04;99292.25;;;10.88;100.00
28448;BME280;15675;52.870;-1.416;2023-12-28T12:21:30;99285.56;;;10.77;100.00
28448;BME280;15675;52.870;-1.416;2023-12-28T12:23:55;99298.63;;;10.72;100.00
28448;BME280;15675;52.870;-1.416;2023-12-28T12:26:21;99309.97;;;10.66;100.00
28448;BME280;15675;52.870;-1.416;2023-12-28T12:28:47;99313.72;;;10.50;100.00
28448;BME280;15675;52.870;-1.416;2023-12-28T12:31:13;99311.88;;;10.58;100.00
28448;BME280;15675;52.870;-1.416;2023-12-28T12:33:40;99335.19;;;10.60;100.00
28448;BME280;15675;52.870;-1.416;2023-12-28T12:36:07;99341.13;;;10.66;100.00
28448;BME280;15675;52.870;-1.416;2023-12-28T12:38:34;99312.13;;;10.43;100.00
28448;BME280;15675;52.870;-1.416;2023-12-28T12:40:59;99318.38;;;10.79;100.00